Stolt Spray — ZCSQ9 — position and weather

sailwx.info

Track history (hours):
 
Tides and Currents Weather Stations Pressure Air Temp Water Temp Dewpoint Dewpoint Depression Visibility Wind Speed Wind Dir Waves Ship Positions

Stolt Spray

Last reported at 2016-Feb-07 17:33 UTC. Time now 2016-Feb-10 22:07 UTC.
Position N 36°17' E 014°43'.

Length 163 m; draft 10.3 m.

Type: Ship (hazmat cat B). MMSI: 319591000.

Date/timePositionNaut miles runAvg speedWind from/ knotsBaromVisibWave heightAir tempDewpointWater temp
2016-Feb-07 17:33N 36°17' E 014°43'1514.8
2016-Feb-07 16:34N 36°21' E 014°26'1514.7
2016-Feb-07 15:33N 36°26' E 014°09'64014.6
2016-Feb-05 19:33N 36°48' E 000°51'1414.2
2016-Feb-05 18:33N 36°46' E 000°34'27414.3
2016-Feb-04 23:21N 36°01' W 005°02'1214.8
2016-Feb-04 22:33N 35°59' W 005°17'1414.3
2016-Feb-04 21:33N 35°56' W 005°34'60013.8
2016-Feb-03 02:06N 28°20' W 013°16'814.2
2016-Feb-03 01:33N 28°14' W 013°21'1414.0
2016-Feb-03 00:33N 28°02' W 013°29'1514.0
2016-Feb-02 23:29N 27°50' W 013°39'1314.4
2016-Feb-02 22:33N 27°39' W 013°48'1414.5
2016-Feb-02 21:34N 27°27' W 013°58'1615.0
2016-Feb-02 20:31N 27°15' W 014°08'2014.8
2016-Feb-02 19:09N 26°59' W 014°22'914.6
2016-Feb-02 18:33N 26°52' W 014°27'1814.5
2016-Feb-02 17:18N 26°37' W 014°39'1314.3
2016-Feb-02 16:24N 26°27' W 014°48'1614.3
2016-Feb-02 15:18N 26°14' W 014°58'  
Track history (hours):
 
Tides and Currents Weather Stations Pressure Air Temp Water Temp Dewpoint Dewpoint Depression Visibility Wind Speed Wind Dir Waves Ship Positions

Stolt Spray

Last reported at 2016-Feb-07 17:33 UTC. Time now 2016-Feb-10 22:07 UTC.
Position N 36°17' E 014°43'.

Length 163 m; draft 10.3 m.

Type: Ship (hazmat cat B). MMSI: 319591000.

Date/timePositionNaut miles runAvg speedWind from/ knotsBaromVisibWave heightAir tempDewpointWater temp
2016-Feb-07 17:33N 36°17' E 014°43'1514.8
2016-Feb-07 16:34N 36°21' E 014°26'1514.7
2016-Feb-07 15:33N 36°26' E 014°09'64014.6
2016-Feb-05 19:33N 36°48' E 000°51'1414.2
2016-Feb-05 18:33N 36°46' E 000°34'27414.3
2016-Feb-04 23:21N 36°01' W 005°02'1214.8
2016-Feb-04 22:33N 35°59' W 005°17'1414.3
2016-Feb-04 21:33N 35°56' W 005°34'60013.8
2016-Feb-03 02:06N 28°20' W 013°16'814.2
2016-Feb-03 01:33N 28°14' W 013°21'1414.0
2016-Feb-03 00:33N 28°02' W 013°29'1514.0
2016-Feb-02 23:29N 27°50' W 013°39'1314.4
2016-Feb-02 22:33N 27°39' W 013°48'1414.5
2016-Feb-02 21:34N 27°27' W 013°58'1615.0
2016-Feb-02 20:31N 27°15' W 014°08'2014.8
2016-Feb-02 19:09N 26°59' W 014°22'914.6
2016-Feb-02 18:33N 26°52' W 014°27'1814.5
2016-Feb-02 17:18N 26°37' W 014°39'1314.3
2016-Feb-02 16:24N 26°27' W 014°48'1614.3
2016-Feb-02 15:18N 26°14' W 014°58'  

Dump ship's entire track history